Time;durP1;ratioP1;P1;durP2;ratioP2;P2;SDS_P1;SDS_P2;PMS_P1;PMS_P2;Temp;Humidity;BMP_temperature;BMP_pressure;BME280_temperature;BME280_humidity;BME280_pressure;Samples;Min_cycle;Max_cycle;Signal;HPM_P1;HPM_P2
2022/09/20 00:00:22;;;;;;;0.10;0.10;;;;;;;;;;5052116;28;20399;-74
2022/09/20 00:02:48;;;;;;;0.10;0.10;;;;;;;;;;5052537;28;20447;-72
2022/09/20 00:05:14;;;;;;;0.10;0.10;;;;;;;;;;5048746;28;20496;-72
2022/09/20 00:07:43;;;;;;;0.10;0.10;;;;;;;;;;5035936;28;20036;-74
2022/09/20 00:10:09;;;;;;;0.10;0.10;;;;;;;;;;5046056;28;20045;-73
2022/09/20 00:12:35;;;;;;;0.10;0.10;;;;;;;;;;5053972;28;20546;-73
2022/09/20 00:15:01;;;;;;;0.40;0.40;;;;;;;;;;5051757;28;20055;-73
2022/09/20 00:17:27;;;;;;;0.10;0.10;;;;;;;;;;5060848;28;20072;-74
2022/09/20 00:19:53;;;;;;;0.10;0.10;;;;;;;;;;5054534;28;20040;-73
2022/09/20 00:22:19;;;;;;;0.10;0.10;;;;;;;;;;5038163;28;20045;-72
2022/09/20 00:24:46;;;;;;;0.10;0.10;;;;;;;;;;5055131;28;20549;-73
2022/09/20 00:27:12;;;;;;;0.10;0.10;;;;;;;;;;5055803;28;20044;-74
2022/09/20 00:29:38;;;;;;;0.10;0.10;;;;;;;;;;5050925;28;20047;-73
2022/09/20 00:32:04;;;;;;;0.10;0.10;;;;;;;;;;5033622;28;20041;-72
2022/09/20 00:37:15;;;;;;;0.10;0.10;;;;;;;;;;5057735;28;20506;-72
2022/09/20 00:39:41;;;;;;;0.10;0.10;;;;;;;;;;5060935;28;20554;-74
2022/09/20 00:42:11;;;;;;;0.10;0.10;;;;;;;;;;5057969;28;20057;-73
2022/09/20 00:44:49;;;;;;;0.10;0.10;;;;;;;;;;5061063;28;20129;-73
2022/09/20 00:47:21;;;;;;;0.10;0.10;;;;;;;;;;5035059;28;20066;-72
2022/09/20 00:49:49;;;;;;;0.10;0.10;;;;;;;;;;5054622;28;20045;-73
2022/09/20 00:52:15;;;;;;;0.10;0.10;;;;;;;;;;5047775;28;20394;-74
2022/09/20 00:54:41;;;;;;;0.10;0.10;;;;;;;;;;5039847;28;20502;-73
2022/09/20 00:57:07;;;;;;;0.10;0.10;;;;;;;;;;5052762;28;20368;-73
2022/09/20 00:59:35;;;;;;;0.20;0.20;;;;;;;;;;5037919;28;20045;-73
2022/09/20 01:02:22;;;;;;;0.10;0.10;;;;;;;;;;5054172;28;20492;-76
2022/09/20 01:04:49;;;;;;;0.10;0.10;;;;;;;;;;5045848;28;20522;-72
2022/09/20 01:07:16;;;;;;;0.10;0.10;;;;;;;;;;5051682;28;20484;-71
2022/09/20 01:09:43;;;;;;;0.10;0.10;;;;;;;;;;5065453;28;20044;-73
2022/09/20 01:12:11;;;;;;;0.10;0.10;;;;;;;;;;5052659;28;20048;-73
2022/09/20 01:14:37;;;;;;;0.10;0.10;;;;;;;;;;5064230;28;20135;-73
2022/09/20 01:17:05;;;;;;;0.10;0.10;;;;;;;;;;5054459;28;20094;-71
2022/09/20 01:19:46;;;;;;;0.10;0.10;;;;;;;;;;5054916;28;21975;-73
2022/09/20 01:22:27;;;;;;;0.10;0.10;;;;;;;;;;5023170;28;20037;-72
2022/09/20 01:25:29;;;;;;;0.10;0.10;;;;;;;;;;5033897;28;20049;-72
2022/09/20 01:27:55;;;;;;;0.10;0.10;;;;;;;;;;5018119;28;20467;-72
2022/09/20 01:30:23;;;;;;;0.10;0.10;;;;;;;;;;5046910;28;20132;-72
2022/09/20 01:33:09;;;;;;;0.10;0.10;;;;;;;;;;5032825;28;20045;-72
2022/09/20 01:35:35;;;;;;;0.10;0.10;;;;;;;;;;5050470;28;20167;-72
2022/09/20 01:38:01;;;;;;;0.10;0.10;;;;;;;;;;5048057;28;20038;-72
2022/09/20 01:40:37;;;;;;;0.10;0.10;;;;;;;;;;5037173;28;20057;-71
2022/09/20 01:43:03;;;;;;;0.10;0.10;;;;;;;;;;5037879;28;20049;-72
2022/09/20 01:45:30;;;;;;;0.10;0.10;;;;;;;;;;5047766;28;20144;-72
2022/09/20 01:48:14;;;;;;;0.20;0.20;;;;;;;;;;5052962;28;20045;-72
2022/09/20 01:50:55;;;;;;;0.10;0.10;;;;;;;;;;5050314;28;20492;-72
2022/09/20 01:53:40;;;;;;;0.10;0.10;;;;;;;;;;5041542;28;20051;-72
2022/09/20 01:56:06;;;;;;;0.10;0.10;;;;;;;;;;5062991;28;20057;-72
2022/09/20 01:58:51;;;;;;;0.10;0.10;;;;;;;;;;5026336;28;20145;-74
2022/09/20 02:01:17;;;;;;;0.10;0.10;;;;;;;;;;5045964;28;20056;-72
2022/09/20 02:04:21;;;;;;;0.10;0.10;;;;;;;;;;5025473;28;20042;-72
2022/09/20 02:06:54;;;;;;;0.00;0.00;;;;;;;;;;4989618;28;20538;-72
2022/09/20 02:09:35;;;;;;;0.00;0.00;;;;;;;;;;4985365;28;20061;-72
2022/09/20 02:12:20;;;;;;;0.10;0.10;;;;;;;;;;5012952;28;20310;-72
2022/09/20 02:15:05;;;;;;;0.10;0.10;;;;;;;;;;5038362;28;20593;-72
2022/09/20 02:17:39;;;;;;;0.10;0.10;;;;;;;;;;5041263;28;20128;-72
2022/09/20 02:20:18;;;;;;;0.10;0.10;;;;;;;;;;5069076;28;20051;-72
2022/09/20 02:23:02;;;;;;;0.10;0.10;;;;;;;;;;5035352;28;20048;-74
2022/09/20 02:25:46;;;;;;;0.10;0.10;;;;;;;;;;5045884;28;20049;-72
2022/09/20 02:28:31;;;;;;;0.10;0.10;;;;;;;;;;5038928;28;20084;-72
2022/09/20 02:31:06;;;;;;;0.10;0.10;;;;;;;;;;5018032;28;20073;-72
2022/09/20 02:33:51;;;;;;;0.10;0.10;;;;;;;;;;5041992;28;20120;-72
2022/09/20 02:36:36;;;;;;;0.10;0.10;;;;;;;;;;5047747;28;20045;-72
2022/09/20 02:39:07;;;;;;;0.10;0.10;;;;;;;;;;5045209;28;20061;-72
2022/09/20 02:42:06;;;;;;;0.10;0.10;;;;;;;;;;5025438;28;20099;-72
2022/09/20 02:44:37;;;;;;;0.10;0.10;;;;;;;;;;5006405;28;20408;-72
2022/09/20 02:47:23;;;;;;;0.10;0.10;;;;;;;;;;5015959;28;20389;-71
2022/09/20 02:50:00;;;;;;;0.10;0.10;;;;;;;;;;5024322;28;20396;-71
2022/09/20 02:52:33;;;;;;;0.10;0.10;;;;;;;;;;5030751;28;20041;-73
2022/09/20 02:55:08;;;;;;;0.10;0.10;;;;;;;;;;5020216;28;20053;-72
2022/09/20 02:57:49;;;;;;;0.10;0.10;;;;;;;;;;5020633;28;20056;-72
2022/09/20 03:00:24;;;;;;;0.10;0.10;;;;;;;;;;5029635;28;20049;-72
2022/09/20 03:02:56;;;;;;;0.10;0.10;;;;;;;;;;5032147;28;20082;-72
2022/09/20 03:05:40;;;;;;;0.10;0.10;;;;;;;;;;5020579;28;20041;-72
2022/09/20 03:08:29;;;;;;;0.10;0.10;;;;;;;;;;5027849;28;20044;-72
2022/09/20 03:11:04;;;;;;;0.10;0.10;;;;;;;;;;5029396;28;20048;-72
2022/09/20 03:13:49;;;;;;;0.10;0.10;;;;;;;;;;5029181;28;20042;-71
2022/09/20 03:16:15;;;;;;;0.10;0.10;;;;;;;;;;5020382;28;20061;-73
2022/09/20 03:18:57;;;;;;;0.10;0.10;;;;;;;;;;5047493;28;20049;-72
2022/09/20 03:21:41;;;;;;;0.10;0.10;;;;;;;;;;5015533;28;20050;-71
2022/09/20 03:24:07;;;;;;;0.10;0.10;;;;;;;;;;5023153;28;20392;-72
2022/09/20 03:26:39;;;;;;;0.10;0.10;;;;;;;;;;5020037;28;20054;-72
2022/09/20 03:29:15;;;;;;;0.10;0.10;;;;;;;;;;5014978;28;20485;-72
2022/09/20 03:31:47;;;;;;;0.10;0.10;;;;;;;;;;5026960;28;20484;-72
2022/09/20 03:34:25;;;;;;;0.10;0.10;;;;;;;;;;5004679;28;20046;-74
2022/09/20 03:37:04;;;;;;;0.00;0.00;;;;;;;;;;5027148;28;20515;-72
2022/09/20 03:39:36;;;;;;;0.10;0.10;;;;;;;;;;5031725;28;20698;-71
2022/09/20 03:42:02;;;;;;;0.10;0.10;;;;;;;;;;5046089;28;20048;-72
2022/09/20 03:44:47;;;;;;;0.10;0.10;;;;;;;;;;5037123;28;20037;-72
2022/09/20 03:47:16;;;;;;;0.10;0.10;;;;;;;;;;5042036;28;20120;-72
2022/09/20 03:50:00;;;;;;;0.10;0.10;;;;;;;;;;5043345;28;20103;-72
2022/09/20 03:52:29;;;;;;;0.10;0.10;;;;;;;;;;5059644;28;20048;-72
2022/09/20 03:54:56;;;;;;;0.10;0.10;;;;;;;;;;5019099;28;20391;-72
2022/09/20 03:57:34;;;;;;;0.10;0.10;;;;;;;;;;5024181;28;20049;-72
2022/09/20 04:00:22;;;;;;;0.10;0.10;;;;;;;;;;5047815;28;20044;-72
2022/09/20 04:03:07;;;;;;;0.10;0.10;;;;;;;;;;5040732;28;20050;-72
2022/09/20 04:06:00;;;;;;;0.10;0.10;;;;;;;;;;5036735;28;20145;-72
2022/09/20 04:08:26;;;;;;;0.10;0.10;;;;;;;;;;5023007;28;20056;-71
2022/09/20 04:11:16;;;;;;;0.10;0.10;;;;;;;;;;5037525;28;20041;-72
2022/09/20 04:13:46;;;;;;;0.10;0.10;;;;;;;;;;5032513;28;20054;-72
2022/09/20 04:16:31;;;;;;;0.10;0.10;;;;;;;;;;5032451;28;20052;-72
2022/09/20 04:19:00;;;;;;;0.10;0.10;;;;;;;;;;5065876;28;20498;-72
2022/09/20 04:21:39;;;;;;;0.10;0.10;;;;;;;;;;5026470;28;20442;-71
2022/09/20 04:24:23;;;;;;;0.10;0.10;;;;;;;;;;5064696;28;20049;-72
2022/09/20 04:27:10;;;;;;;0.10;0.10;;;;;;;;;;5037964;28;20439;-72
2022/09/20 04:29:40;;;;;;;0.10;0.10;;;;;;;;;;5040885;28;20306;-72
2022/09/20 04:32:24;;;;;;;0.10;0.10;;;;;;;;;;5051052;28;20134;-72
2022/09/20 04:37:43;;;;;;;0.10;0.10;;;;;;;;;;5032575;28;20110;-72
2022/09/20 04:40:15;;;;;;;0.10;0.10;;;;;;;;;;5040785;28;20057;-72
2022/09/20 04:42:41;;;;;;;0.10;0.10;;;;;;;;;;5040658;28;20041;-72
2022/09/20 04:45:17;;;;;;;0.10;0.10;;;;;;;;;;5037692;28;20048;-71
2022/09/20 04:48:02;;;;;;;0.10;0.10;;;;;;;;;;5022624;28;20045;-71
2022/09/20 04:50:34;;;;;;;0.10;0.10;;;;;;;;;;5043638;28;20121;-72
2022/09/20 04:53:03;;;;;;;0.10;0.10;;;;;;;;;;5049155;28;20053;-72
2022/09/20 04:55:49;;;;;;;0.10;0.10;;;;;;;;;;5045077;28;20136;-72
2022/09/20 04:58:26;;;;;;;0.10;0.10;;;;;;;;;;5031464;28;20452;-72
2022/09/20 05:01:16;;;;;;;0.10;0.10;;;;;;;;;;5042607;28;20045;-72
2022/09/20 05:03:51;;;;;;;0.10;0.10;;;;;;;;;;5034413;28;20053;-72
2022/09/20 05:06:23;;;;;;;0.10;0.10;;;;;;;;;;5032808;28;20041;-72
2022/09/20 05:08:49;;;;;;;0.10;0.10;;;;;;;;;;5050650;28;20049;-72
2022/09/20 05:11:18;;;;;;;0.10;0.10;;;;;;;;;;5032847;28;20099;-72
2022/09/20 05:13:48;;;;;;;0.10;0.10;;;;;;;;;;5031398;28;20045;-72
2022/09/20 05:16:23;;;;;;;0.10;0.10;;;;;;;;;;5044408;28;20089;-72
2022/09/20 05:19:13;;;;;;;0.10;0.10;;;;;;;;;;5035570;28;20056;-72
2022/09/20 05:21:42;;;;;;;0.10;0.10;;;;;;;;;;5035993;28;20041;-71
2022/09/20 05:24:24;;;;;;;0.10;0.10;;;;;;;;;;5034753;28;20084;-72
2022/09/20 05:27:01;;;;;;;0.10;0.10;;;;;;;;;;5022704;28;20130;-72
2022/09/20 05:29:28;;;;;;;0.10;0.10;;;;;;;;;;5045903;28;20072;-72
2022/09/20 05:32:17;;;;;;;0.10;0.10;;;;;;;;;;5035613;28;20049;-72
2022/09/20 05:34:52;;;;;;;0.10;0.10;;;;;;;;;;5026886;28;20054;-72
2022/09/20 05:37:37;;;;;;;0.10;0.10;;;;;;;;;;5049555;28;20068;-72
2022/09/20 05:40:24;;;;;;;0.10;0.10;;;;;;;;;;5053630;28;20109;-72
2022/09/20 05:42:59;;;;;;;0.10;0.10;;;;;;;;;;4985964;28;20066;-72
2022/09/20 05:45:44;;;;;;;0.10;0.10;;;;;;;;;;5047042;28;20053;-74
2022/09/20 05:48:14;;;;;;;0.10;0.10;;;;;;;;;;5040488;28;20041;-72
2022/09/20 05:50:43;;;;;;;0.10;0.10;;;;;;;;;;5042805;28;20049;-72
2022/09/20 05:53:29;;;;;;;0.10;0.10;;;;;;;;;;5046671;28;20041;-72
2022/09/20 05:55:55;;;;;;;0.00;0.00;;;;;;;;;;5016824;28;20057;-72
2022/09/20 05:58:27;;;;;;;0.10;0.10;;;;;;;;;;5042385;28;20042;-72
2022/09/20 06:00:59;;;;;;;0.10;0.10;;;;;;;;;;5063072;28;20045;-71
2022/09/20 06:03:46;;;;;;;0.10;0.10;;;;;;;;;;5042722;28;20359;-74
2022/09/20 06:06:27;;;;;;;0.10;0.10;;;;;;;;;;5042106;28;20518;-72
2022/09/20 06:08:56;;;;;;;0.10;0.10;;;;;;;;;;5034813;28;20057;-71
2022/09/20 06:11:22;;;;;;;;;;;;;;;;;;5044598;28;20042;-72
2022/09/20 06:13:48;;;;;;;;;;;;;;;;;;5030113;28;19921;-72
2022/09/20 06:16:14;;;;;;;;;;;;;;;;;;5044703;28;20078;-72
2022/09/20 06:18:40;;;;;;;;;;;;;;;;;;5044691;28;20422;-72
2022/09/20 06:21:06;;;;;;;;;;;;;;;;;;5045357;28;20359;-72
2022/09/20 06:23:32;;;;;;;;;;;;;;;;;;5048104;28;19921;-72
2022/09/20 06:25:58;;;;;;;;;;;;;;;;;;5035753;28;19920;-73
2022/09/20 06:28:24;;;;;;;;;;;;;;;;;;5048261;28;20436;-71
2022/09/20 06:30:50;;;;;;;;;;;;;;;;;;5016985;28;20368;-72
2022/09/20 06:33:16;;;;;;;;;;;;;;;;;;5041869;28;20371;-72
2022/09/20 06:35:42;;;;;;;;;;;;;;;;;;5023466;28;20394;-72
2022/09/20 06:43:39;;;;;;;;;;;;;;;;;;5038868;28;19928;-72
2022/09/20 06:46:05;;;;;;;;;;;;;;;;;;5044167;28;19921;-73
2022/09/20 06:48:31;;;;;;;;;;;;;;;;;;5063367;28;19971;-73
2022/09/20 06:50:57;;;;;;;;;;;;;;;;;;5033682;28;20050;-73
2022/09/20 06:53:23;;;;;;;;;;;;;;;;;;5040389;28;19921;-72
2022/09/20 06:55:50;;;;;;;;;;;;;;;;;;5022797;28;19982;-73
2022/09/20 06:58:16;;;;;;;;;;;;;;;;;;5037589;28;19925;-72
2022/09/20 07:00:42;;;;;;;;;;;;;;;;;;5052467;28;19986;-73
2022/09/20 07:03:08;;;;;;;;;;;;;;;;;;5052664;28;20359;-72
2022/09/20 07:05:35;;;;;;;;;;;;;;;;;;5039006;28;20028;-73
2022/09/20 07:08:01;;;;;;;;;;;;;;;;;;5051145;28;19927;-73
2022/09/20 07:10:27;;;;;;;;;;;;;;;;;;5043873;28;20203;-73
2022/09/20 07:12:53;;;;;;;;;;;;;;;;;;5039669;28;19925;-72
2022/09/20 07:15:21;;;;;;;;;;;;;;;;;;5053884;28;19925;-72
2022/09/20 07:17:48;;;;;;;;;;;;;;;;;;5042281;28;20291;-73
2022/09/20 07:20:14;;;;;;;;;;;;;;;;;;5037358;28;19921;-72
2022/09/20 07:22:40;;;;;;;;;;;;;;;;;;5036211;28;19932;-72
2022/09/20 07:25:06;;;;;;;;;;;;;;;;;;5037399;28;19952;-72
2022/09/20 07:27:32;;;;;;;;;;;;;;;;;;5041034;28;20009;-73
2022/09/20 07:29:58;;;;;;;;;;;;;;;;;;5052089;28;19924;-72
2022/09/20 07:32:25;;;;;;;;;;;;;;;;;;5043165;28;19925;-72
2022/09/20 07:34:51;;;;;;;;;;;;;;;;;;5049235;28;20371;-73
2022/09/20 07:37:18;;;;;;;;;;;;;;;;;;5053365;28;19928;-72
2022/09/20 07:39:44;;;;;;;;;;;;;;;;;;5033714;28;20329;-73
2022/09/20 07:42:10;;;;;;;;;;;;;;;;;;5043042;28;19920;-73
2022/09/20 07:44:39;;;;;;;;;;;;;;;;;;5040162;28;20015;-73
2022/09/20 07:47:05;;;;;;;;;;;;;;;;;;5043083;28;19924;-73
2022/09/20 07:49:31;;;;;;;;;;;;;;;;;;5047496;28;19921;-73
2022/09/20 07:51:57;;;;;;;;;;;;;;;;;;5045820;28;19925;-74
2022/09/20 07:54:23;;;;;;;;;;;;;;;;;;5041570;28;19921;-74
2022/09/20 07:56:49;;;;;;;;;;;;;;;;;;5051055;28;20107;-74
2022/09/20 07:59:15;;;;;;;;;;;;;;;;;;5049405;28;19936;-74
2022/09/20 08:01:41;;;;;;;;;;;;;;;;;;5030082;28;19921;-73
2022/09/20 08:04:07;;;;;;;;;;;;;;;;;;5052277;28;19921;-73
2022/09/20 08:06:33;;;;;;;;;;;;;;;;;;5040933;28;19925;-73
2022/09/20 08:08:59;;;;;;;;;;;;;;;;;;5037032;28;19929;-73
2022/09/20 08:11:27;;;;;;;;;;;;;;;;;;5037770;28;20409;-72
2022/09/20 08:13:53;;;;;;;;;;;;;;;;;;5042213;28;20020;-74
2022/09/20 08:16:19;;;;;;;;;;;;;;;;;;5038136;28;20342;-76
2022/09/20 08:18:45;;;;;;;;;;;;;;;;;;5038304;28;19990;-76
2022/09/20 08:21:11;;;;;;;;;;;;;;;;;;5047073;28;20020;-74
2022/09/20 08:23:37;;;;;;;;;;;;;;;;;;5046798;28;20015;-75
2022/09/20 08:26:03;;;;;;;;;;;;;;;;;;5049017;28;19927;-75
2022/09/20 08:28:30;;;;;;;;;;;;;;;;;;5045906;28;19925;-75
2022/09/20 08:30:56;;;;;;;;;;;;;;;;;;5036295;28;19925;-75
2022/09/20 08:33:22;;;;;;;;;;;;;;;;;;5035612;28;19921;-75
2022/09/20 08:35:48;;;;;;;;;;;;;;;;;;5044764;28;20273;-75
2022/09/20 08:38:14;;;;;;;;;;;;;;;;;;5038819;28;19944;-75
2022/09/20 08:40:40;;;;;;;;;;;;;;;;;;5037740;28;20398;-76
2022/09/20 08:43:06;;;;;;;;;;;;;;;;;;5016022;28;20448;-75
2022/09/20 08:45:32;;;;;;;;;;;;;;;;;;5035022;28;19928;-75
2022/09/20 08:47:58;;;;;;;;;;;;;;;;;;5062572;28;19921;-75
2022/09/20 08:50:24;;;;;;;;;;;;;;;;;;5039270;28;19921;-75
2022/09/20 08:52:50;;;;;;;;;;;;;;;;;;5056276;28;19925;-76
2022/09/20 08:55:16;;;;;;;;;;;;;;;;;;5052951;28;19921;-76
2022/09/20 08:57:42;;;;;;;;;;;;;;;;;;5055758;28;19961;-76
2022/09/20 09:00:08;;;;;;;;;;;;;;;;;;5035477;28;19920;-74
2022/09/20 09:02:34;;;;;;;;;;;;;;;;;;5042633;28;20407;-74
2022/09/20 09:05:00;;;;;;;;;;;;;;;;;;5035638;28;20007;-73
2022/09/20 09:07:26;;;;;;;;;;;;;;;;;;5055211;28;20360;-75
2022/09/20 09:09:52;;;;;;;;;;;;;;;;;;5038233;28;19996;-75
2022/09/20 09:12:18;;;;;;;;;;;;;;;;;;5036325;28;20379;-75
2022/09/20 09:14:47;;;;;;;;;;;;;;;;;;5036027;28;19928;-75
2022/09/20 09:17:13;;;;;;;;;;;;;;;;;;5051572;28;19980;-75
2022/09/20 09:19:39;;;;;;;;;;;;;;;;;;5043398;28;19947;-76
2022/09/20 09:22:05;;;;;;;0.30;0.30;;;;;;;;;;5053490;28;19927;-75
2022/09/20 09:24:31;;;;;;;0.10;0.10;;;;;;;;;;5060645;28;20048;-75
2022/09/20 09:27:13;;;;;;;0.10;0.10;;;;;;;;;;5022381;28;20072;-76
2022/09/20 09:29:50;;;;;;;0.10;0.10;;;;;;;;;;5055601;28;20060;-75
2022/09/20 09:32:36;;;;;;;0.10;0.10;;;;;;;;;;5030105;28;20064;-75
2022/09/20 09:35:21;;;;;;;3.63;1.02;;;;;;;;;;5035715;28;20068;-75
2022/09/20 09:37:53;;;;;;;0.10;0.10;;;;;;;;;;5017956;28;20049;-75
2022/09/20 09:40:19;;;;;;;0.10;0.10;;;;;;;;;;5037833;28;20134;-74
2022/09/20 09:42:54;;;;;;;0.10;0.10;;;;;;;;;;5034972;28;20491;-76
2022/09/20 09:45:31;;;;;;;0.13;0.13;;;;;;;;;;5058397;28;20061;-73
2022/09/20 09:47:58;;;;;;;0.20;0.20;;;;;;;;;;5051391;28;20053;-74
2022/09/20 09:50:27;;;;;;;0.10;0.10;;;;;;;;;;5044109;28;20049;-74
2022/09/20 09:52:58;;;;;;;0.10;0.10;;;;;;;;;;5019079;28;20056;-74
2022/09/20 09:55:26;;;;;;;0.10;0.10;;;;;;;;;;5036423;28;20084;-75
2022/09/20 09:57:59;;;;;;;0.10;0.10;;;;;;;;;;5035275;28;20175;-74
2022/09/20 10:00:26;;;;;;;0.10;0.10;;;;;;;;;;5044825;28;20053;-74
2022/09/20 10:03:09;;;;;;;0.40;0.40;;;;;;;;;;5017063;28;20049;-75
2022/09/20 10:05:47;;;;;;;0.00;0.00;;;;;;;;;;5038723;28;20052;-75
2022/09/20 10:08:23;;;;;;;0.10;0.10;;;;;;;;;;5017672;28;20060;-75
2022/09/20 10:10:49;;;;;;;0.10;0.10;;;;;;;;;;5019209;28;20041;-74
2022/09/20 10:13:22;;;;;;;0.10;0.10;;;;;;;;;;5050828;28;20522;-74
2022/09/20 10:16:07;;;;;;;0.10;0.10;;;;;;;;;;5027447;28;20048;-75
2022/09/20 10:18:42;;;;;;;0.10;0.10;;;;;;;;;;5048853;28;20053;-74
2022/09/20 10:21:11;;;;;;;0.10;0.10;;;;;;;;;;5034300;28;20064;-75
2022/09/20 10:23:39;;;;;;;0.10;0.10;;;;;;;;;;5051741;28;20029;-74
2022/09/20 10:26:06;;;;;;;0.10;0.10;;;;;;;;;;5019988;28;20076;-74
2022/09/20 10:28:49;;;;;;;0.10;0.10;;;;;;;;;;5053723;28;20041;-74
2022/09/20 10:31:24;;;;;;;0.25;0.25;;;;;;;;;;5020636;28;20053;-75
2022/09/20 10:34:15;;;;;;;0.10;0.10;;;;;;;;;;5034606;28;20050;-74
2022/09/20 10:36:51;;;;;;;0.10;0.10;;;;;;;;;;5042884;28;20543;-74
2022/09/20 10:39:30;;;;;;;0.10;0.10;;;;;;;;;;5022456;28;20126;-74
2022/09/20 10:44:50;;;;;;;0.10;0.10;;;;;;;;;;5035152;28;20049;-73
2022/09/20 10:47:21;;;;;;;0.10;0.10;;;;;;;;;;5067953;28;20045;-75
2022/09/20 10:50:06;;;;;;;0.10;0.10;;;;;;;;;;5038489;28;20094;-74
2022/09/20 10:52:53;;;;;;;0.10;0.10;;;;;;;;;;5025935;28;20076;-74
2022/09/20 10:55:19;;;;;;;0.13;0.13;;;;;;;;;;5049204;28;20064;-74
2022/09/20 10:58:03;;;;;;;0.10;0.10;;;;;;;;;;5044006;28;20042;-73
2022/09/20 11:00:45;;;;;;;0.10;0.10;;;;;;;;;;5040842;28;20088;-73
2022/09/20 11:03:11;;;;;;;0.00;0.00;;;;;;;;;;5051834;28;20171;-74
2022/09/20 11:05:38;;;;;;;0.10;0.10;;;;;;;;;;5034142;28;20132;-75
2022/09/20 11:08:12;;;;;;;0.10;0.10;;;;;;;;;;5049449;28;20504;-74
2022/09/20 11:10:42;;;;;;;0.10;0.10;;;;;;;;;;5049386;28;20098;-75
2022/09/20 11:13:37;;;;;;;0.15;0.15;;;;;;;;;;5020867;28;20045;-73
2022/09/20 11:16:12;;;;;;;0.00;0.00;;;;;;;;;;4998355;28;20058;-72
2022/09/20 11:19:06;;;;;;;0.00;0.00;;;;;;;;;;5041540;28;20041;-73
2022/09/20 11:21:36;;;;;;;0.10;0.10;;;;;;;;;;5013259;28;20412;-75
2022/09/20 11:24:06;;;;;;;0.10;0.10;;;;;;;;;;5044359;28;20041;-74
2022/09/20 11:26:45;;;;;;;0.10;0.10;;;;;;;;;;5012018;28;20064;-77
2022/09/20 11:29:25;;;;;;;0.10;0.10;;;;;;;;;;5049998;28;20748;-77
2022/09/20 11:31:53;;;;;;;0.10;0.10;;;;;;;;;;5016570;28;20060;-79
2022/09/20 11:34:33;;;;;;;0.10;0.10;;;;;;;;;;5028280;28;20049;-75
2022/09/20 11:37:02;;;;;;;0.10;0.10;;;;;;;;;;5065643;28;20033;-76
2022/09/20 11:39:48;;;;;;;0.10;0.10;;;;;;;;;;5031080;28;20555;-75
2022/09/20 11:42:19;;;;;;;0.10;0.10;;;;;;;;;;5047307;28;20053;-76
2022/09/20 11:44:45;;;;;;;21.13;1.30;;;;;;;;;;5022509;28;20056;-74
2022/09/20 11:47:11;;;;;;;0.10;0.10;;;;;;;;;;5029724;28;20049;-75
2022/09/20 11:49:56;;;;;;;0.00;0.00;;;;;;;;;;5062989;28;20146;-75
2022/09/20 11:52:25;;;;;;;0.10;0.10;;;;;;;;;;5026674;28;20049;-77
2022/09/20 11:55:03;;;;;;;0.10;0.10;;;;;;;;;;5026246;28;20081;-75
2022/09/20 11:57:30;;;;;;;0.10;0.10;;;;;;;;;;5042038;28;20082;-75
2022/09/20 11:59:57;;;;;;;0.00;0.00;;;;;;;;;;5025312;28;20068;-74
2022/09/20 12:02:27;;;;;;;0.10;0.10;;;;;;;;;;5033603;28;20103;-77
2022/09/20 12:04:54;;;;;;;0.10;0.10;;;;;;;;;;5065920;28;20049;-74
2022/09/20 12:07:38;;;;;;;0.30;0.30;;;;;;;;;;5039026;28;20098;-74
2022/09/20 12:10:22;;;;;;;0.10;0.10;;;;;;;;;;5060542;28;20437;-75
2022/09/20 12:12:50;;;;;;;0.10;0.10;;;;;;;;;;5054387;28;20373;-75
2022/09/20 12:15:27;;;;;;;0.10;0.10;;;;;;;;;;5058503;28;20057;-74
2022/09/20 12:17:53;;;;;;;0.10;0.10;;;;;;;;;;5025738;28;20126;-75
2022/09/20 12:20:34;;;;;;;0.75;0.75;;;;;;;;;;5061601;28;20149;-74
2022/09/20 12:23:20;;;;;;;0.10;0.10;;;;;;;;;;5057724;28;20056;-74
2022/09/20 12:26:03;;;;;;;0.00;0.00;;;;;;;;;;5055081;28;20500;-75
2022/09/20 12:28:40;;;;;;;0.10;0.10;;;;;;;;;;5047503;28;20068;-74
2022/09/20 12:31:21;;;;;;;0.10;0.10;;;;;;;;;;5041402;28;20048;-75
2022/09/20 12:34:09;;;;;;;0.10;0.10;;;;;;;;;;5039594;28;20056;-77
2022/09/20 12:36:37;;;;;;;0.10;0.10;;;;;;;;;;5041896;28;20041;-75
2022/09/20 12:39:14;;;;;;;0.10;0.10;;;;;;;;;;5036564;28;20056;-75
2022/09/20 12:42:00;;;;;;;0.10;0.10;;;;;;;;;;5041763;28;20110;-75
2022/09/20 12:44:40;;;;;;;0.10;0.10;;;;;;;;;;5023530;28;20057;-74
2022/09/20 12:47:15;;;;;;;0.10;0.10;;;;;;;;;;5043452;28;20488;-75
2022/09/20 12:52:54;;;;;;;0.10;0.10;;;;;;;;;;5030174;28;20503;-75
2022/09/20 12:55:28;;;;;;;0.10;0.10;;;;;;;;;;5020276;28;20128;-74
2022/09/20 12:57:57;;;;;;;;;;;;;;;;;;5045775;28;20052;-75
2022/09/20 13:00:45;;;;;;;0.20;0.20;;;;;;;;;;5060758;28;19982;-74
2022/09/20 13:03:14;;;;;;;0.10;0.10;;;;;;;;;;5033989;28;20162;-74
2022/09/20 13:05:43;;;;;;;0.20;0.20;;;;;;;;;;5055929;28;20079;-75
2022/09/20 13:08:16;;;;;;;0.10;0.10;;;;;;;;;;5054775;28;20045;-75
2022/09/20 13:11:08;;;;;;;0.00;0.00;;;;;;;;;;5052206;28;20085;-80
2022/09/20 13:13:53;;;;;;;0.10;0.10;;;;;;;;;;5021904;28;20369;-74
2022/09/20 13:16:22;;;;;;;0.10;0.10;;;;;;;;;;5042122;28;20085;-74
2022/09/20 13:19:00;;;;;;;0.10;0.10;;;;;;;;;;5055892;28;20045;-74
2022/09/20 13:21:27;;;;;;;0.10;0.10;;;;;;;;;;5060736;28;20057;-74
2022/09/20 13:23:54;;;;;;;0.10;0.10;;;;;;;;;;5062729;28;20486;-74
2022/09/20 13:26:29;;;;;;;0.10;0.10;;;;;;;;;;5044522;28;20523;-73
2022/09/20 13:28:57;;;;;;;0.10;0.10;;;;;;;;;;5043490;28;20508;-73
2022/09/20 13:31:25;;;;;;;0.10;0.10;;;;;;;;;;5049225;28;20084;-75
2022/09/20 13:33:51;;;;;;;0.10;0.10;;;;;;;;;;5023387;28;20381;-74
2022/09/20 13:36:37;;;;;;;0.10;0.10;;;;;;;;;;5048217;28;20060;-73
2022/09/20 13:39:06;;;;;;;0.00;0.00;;;;;;;;;;5029574;28;20400;-77
2022/09/20 13:41:34;;;;;;;0.10;0.10;;;;;;;;;;5027154;28;20476;-75
2022/09/20 13:44:01;;;;;;;0.00;0.00;;;;;;;;;;5045874;28;20405;-74
2022/09/20 13:46:33;;;;;;;0.10;0.10;;;;;;;;;;5041223;28;20053;-73
2022/09/20 13:49:09;;;;;;;0.10;0.10;;;;;;;;;;5051605;28;20170;-72
2022/09/20 13:51:35;;;;;;;0.10;0.10;;;;;;;;;;5051804;28;20081;-73
2022/09/20 13:54:25;;;;;;;0.10;0.10;;;;;;;;;;5047501;28;20048;-72
2022/09/20 13:56:51;;;;;;;0.10;0.10;;;;;;;;;;5031387;28;20053;-74
2022/09/20 13:59:18;;;;;;;0.10;0.10;;;;;;;;;;5060327;28;20049;-72
2022/09/20 14:01:48;;;;;;;0.10;0.10;;;;;;;;;;5040929;28;20049;-71
2022/09/20 14:04:15;;;;;;;0.10;0.10;;;;;;;;;;5047396;28;20044;-72
2022/09/20 14:06:41;;;;;;;0.10;0.10;;;;;;;;;;5044300;28;20060;-70
2022/09/20 14:09:17;;;;;;;0.10;0.10;;;;;;;;;;5047731;28;20068;-73
2022/09/20 14:11:44;;;;;;;0.10;0.10;;;;;;;;;;5047215;28;20593;-71
2022/09/20 14:14:11;;;;;;;0.00;0.00;;;;;;;;;;5051239;28;20095;-71
2022/09/20 14:16:39;;;;;;;0.10;0.10;;;;;;;;;;5045596;28;20531;-73
2022/09/20 14:19:09;;;;;;;0.10;0.10;;;;;;;;;;5049464;28;20041;-74
2022/09/20 14:21:36;;;;;;;0.00;0.00;;;;;;;;;;5040982;28;20088;-74
2022/09/20 14:24:06;;;;;;;0.10;0.10;;;;;;;;;;5034202;28;20421;-81
2022/09/20 14:26:35;;;;;;;0.00;0.00;;;;;;;;;;5030828;28;20145;-80
2022/09/20 14:29:19;;;;;;;0.10;0.10;;;;;;;;;;5027258;28;20080;-78
2022/09/20 14:31:46;;;;;;;0.10;0.10;;;;;;;;;;5057683;28;20399;-78
2022/09/20 14:34:12;;;;;;;0.10;0.10;;;;;;;;;;5060188;28;20048;-74
2022/09/20 14:36:39;;;;;;;0.10;0.10;;;;;;;;;;5044592;28;20057;-79
2022/09/20 14:39:12;;;;;;;0.10;0.10;;;;;;;;;;5036962;28;20053;-75
2022/09/20 14:41:38;;;;;;;;;;;;;;;;;;5058371;28;20068;-78
2022/09/20 14:44:06;;;;;;;0.10;0.10;;;;;;;;;;5033539;28;19921;-77
2022/09/20 14:46:37;;;;;;;0.10;0.10;;;;;;;;;;5057007;28;20128;-76
2022/09/20 14:49:19;;;;;;;0.10;0.10;;;;;;;;;;5058420;28;20400;-75
2022/09/20 14:51:45;;;;;;;0.10;0.10;;;;;;;;;;5063114;28;20056;-77
2022/09/20 14:54:11;;;;;;;0.10;0.10;;;;;;;;;;5062956;28;20036;-73
2022/09/20 14:56:39;;;;;;;0.10;0.10;;;;;;;;;;5029891;28;20056;-76
2022/09/20 14:59:12;;;;;;;0.10;0.10;;;;;;;;;;5066826;28;20079;-76
2022/09/20 15:01:40;;;;;;;0.20;0.20;;;;;;;;;;5044238;28;20045;-76
2022/09/20 15:04:07;;;;;;;0.10;0.10;;;;;;;;;;5029741;28;20053;-76
2022/09/20 15:06:38;;;;;;;0.10;0.10;;;;;;;;;;5060225;28;20073;-77
2022/09/20 15:09:05;;;;;;;0.00;0.00;;;;;;;;;;5048299;28;20541;-74
2022/09/20 15:11:31;;;;;;;0.10;0.10;;;;;;;;;;5044100;28;20287;-75
2022/09/20 15:13:57;;;;;;;0.10;0.10;;;;;;;;;;5061218;28;20056;-76
2022/09/20 15:16:23;;;;;;;0.10;0.10;;;;;;;;;;5049245;28;20084;-76
2022/09/20 15:18:49;;;;;;;0.10;0.10;;;;;;;;;;5057877;28;20041;-76
2022/09/20 15:21:15;;;;;;;0.00;0.00;;;;;;;;;;5052912;28;20049;-76
2022/09/20 15:23:41;;;;;;;0.10;0.10;;;;;;;;;;5028070;28;20061;-77
2022/09/20 15:26:10;;;;;;;0.00;0.00;;;;;;;;;;5060447;28;20076;-76
2022/09/20 15:28:36;;;;;;;0.10;0.10;;;;;;;;;;5028997;28;20057;-77
2022/09/20 15:31:02;;;;;;;0.10;0.10;;;;;;;;;;5064517;28;20056;-77
2022/09/20 15:33:29;;;;;;;0.10;0.10;;;;;;;;;;5035831;28;20063;-76
2022/09/20 15:35:55;;;;;;;0.10;0.10;;;;;;;;;;5055068;28;20054;-76
2022/09/20 15:38:25;;;;;;;0.00;0.00;;;;;;;;;;5016636;28;20041;-75
2022/09/20 15:40:51;;;;;;;0.10;0.10;;;;;;;;;;5040941;28;20059;-76
2022/09/20 15:43:21;;;;;;;0.00;0.00;;;;;;;;;;5021295;28;20132;-76
2022/09/20 15:45:55;;;;;;;0.10;0.10;;;;;;;;;;5050847;28;20099;-76
2022/09/20 15:48:22;;;;;;;0.10;0.10;;;;;;;;;;5023385;28;20057;-72
2022/09/20 15:51:00;;;;;;;0.10;0.10;;;;;;;;;;5046664;28;20045;-77
2022/09/20 15:53:30;;;;;;;0.10;0.10;;;;;;;;;;5035880;28;20053;-78